ADDS METAR Data INFO
IDs: Format: Raw Decoded Include TAF

Data at: 1201 UTC 21 Jun 2018

KBAM 211155Z AUTO 00000KT 10SM CLR 14/M04 A3011 RMK AO1
KBAM 211135Z AUTO 17003KT 10SM CLR 13/M04 A3010 RMK AO1
KBAM 211115Z AUTO 13005KT 10SM CLR 15/M04 A3010 RMK AO1
KBAM 211055Z AUTO 17004KT 10SM CLR 11/M03 A3010 RMK AO1
KBAM 211035Z AUTO 20003KT 10SM CLR 13/M03 A3009 RMK AO1
KBAM 211015Z AUTO 23006KT 10SM CLR 12/M03 A3008 RMK AO1
KBAM 210955Z AUTO 11004KT 10SM CLR 13/M04 A3008 RMK AO1
KBAM 210935Z AUTO 07005KT 10SM CLR 15/M04 A3007 RMK AO1
KBAM 210915Z AUTO 17004KT 10SM CLR 14/M04 A3006 RMK AO1
KBAM 210855Z AUTO 00000KT 10SM CLR 16/M03 A3006 RMK AO1
KBAM 210835Z AUTO 32006KT 10SM CLR 19/M03 A3005 RMK AO1
KBAM 210815Z AUTO 31006KT 10SM CLR 20/M03 A3005 RMK AO1
KBAM 210755Z AUTO 34006KT 10SM CLR 21/M03 A3005 RMK AO1
KBAM 210735Z AUTO 00000KT 10SM CLR 19/M03 A3004 RMK AO1
KBAM 210715Z AUTO 01003KT 10SM CLR 20/M03 A3004 RMK AO1
KBAM 210655Z AUTO 00000KT 10SM CLR 18/M03 A3004 RMK AO1
KBAM 210635Z AUTO 29003KT 10SM CLR 19/M04 A3003 RMK AO1
KBAM 210615Z AUTO 30004KT 10SM CLR 20/M04 A3003 RMK AO1
KBAM 210555Z AUTO 23007KT 10SM CLR 20/M05 A3002 RMK AO1
KBAM 210535Z AUTO 24006KT 10SM CLR 20/M05 A3002 RMK AO1
KBAM 210515Z AUTO 26006KT 10SM CLR 21/M05 A3002 RMK AO1
KBAM 210455Z AUTO 24007KT 10SM CLR 21/M04 A3001 RMK AO1
KBAM 210435Z AUTO 24008KT 10SM CLR 22/M04 A3001 RMK AO1
KBAM 210415Z AUTO 23007KT 10SM CLR 23/M05 A3001 RMK AO1
KBAM 210355Z AUTO 23006KT 10SM CLR 25/M07 A3001 RMK AO1
KBAM 210335Z AUTO 25006KT 10SM CLR 27/M07 A3000 RMK AO1
KBAM 210315Z AUTO 25005KT 10SM CLR 29/M08 A3000 RMK AO1
KBAM 210255Z AUTO 25010KT 10SM CLR 31/M10 A3000 RMK AO1
KBAM 210235Z AUTO 26012G17KT 10SM CLR 32/M11 A3000 RMK AO1
KBAM 210215Z AUTO 25010KT 10SM CLR 32/M11 A3000 RMK AO1
KBAM 210155Z AUTO 28011G17KT 10SM CLR 33/M10 A3000 RMK AO1
KBAM 210135Z AUTO 26008G15KT 10SM CLR 33/M08 A3000 RMK AO1
KBAM 210115Z AUTO 24009KT 10SM CLR 33/M09 A3000 RMK AO1
KBAM 210055Z AUTO 24011G16KT 10SM CLR 33/M10 A3000 RMK AO1
KBAM 210035Z AUTO 25004KT 10SM CLR 33/M08 A3001 RMK AO1
KBAM 210015Z AUTO 00000KT 10SM CLR 33/M06 A3002 RMK AO1
KBAM 202355Z AUTO 22003KT 10SM CLR 33/M06 A3003 RMK AO1
KBAM 202335Z AUTO 00000KT 10SM CLR 32/M05 A3003 RMK AO1
KBAM 202315Z AUTO 28004KT 10SM CLR 32/M04 A3004 RMK AO1
KBAM 202255Z AUTO 22003KT 10SM CLR 32/M03 A3005 RMK AO1
KBAM 202235Z AUTO 26006KT 10SM CLR 32/M03 A3005 RMK AO1
KBAM 202215Z AUTO 00000KT 10SM CLR 31/M03 A3006 RMK AO1
KBAM 202155Z AUTO 28005KT 10SM CLR 31/M03 A3007 RMK AO1
KBAM 202135Z AUTO 07003KT 10SM CLR 31/M03 A3008 RMK AO1
KBAM 202115Z AUTO 05007KT 10SM CLR 31/M02 A3009 RMK AO1
KBAM 202055Z AUTO 03003KT 10SM CLR 30/00 A3010 RMK AO1
KBAM 202035Z AUTO 05004KT 10SM CLR 30/00 A3011 RMK AO1
KBAM 202015Z AUTO 29004KT 10SM CLR 29/00 A3011 RMK AO1
KBAM 201955Z AUTO 01004KT 10SM CLR 28/01 A3012 RMK AO1
KBAM 201935Z AUTO 29007KT 10SM CLR 28/00 A3013 RMK AO1
KBAM 201915Z AUTO 32004KT 10SM CLR 28/01 A3013 RMK AO1
KBAM 201855Z AUTO 31005KT 10SM CLR 27/01 A3014 RMK AO1
KBAM 201835Z AUTO 36003KT 10SM CLR 27/01 A3015 RMK AO1
KBAM 201815Z AUTO 00000KT 10SM CLR 26/02 A3015 RMK AO1
KBAM 201755Z AUTO 35004KT 10SM CLR 26/02 A3016 RMK AO1
KBAM 201735Z AUTO 00000KT 10SM CLR 26/02 A3016 RMK AO1
KBAM 201715Z AUTO 06003KT 10SM CLR 25/04 A3017 RMK AO1
KBAM 201655Z AUTO 03004KT 10SM CLR 24/05 A3017 RMK AO1
KBAM 201635Z AUTO 02005KT 10SM CLR 22/05 A3018 RMK AO1
KBAM 201615Z AUTO 06007KT 10SM CLR 22/06 A3019 RMK AO1
KBAM 201555Z AUTO 05007KT 10SM CLR 21/06 A3019 RMK AO1
KBAM 201535Z AUTO 05009KT 10SM CLR 20/06 A3019 RMK AO1
KBAM 201515Z AUTO 03008KT 10SM CLR 19/06 A3019 RMK AO1
KBAM 201455Z AUTO 05009KT 10SM CLR 18/06 A3019 RMK AO1
KBAM 201435Z AUTO 05006KT 10SM CLR 17/06 A3019 RMK AO1
KBAM 201415Z AUTO 07004KT 10SM CLR 15/06 A3019 RMK AO1
KBAM 201355Z AUTO 00000KT 10SM CLR 13/05 A3019 RMK AO1
KBAM 201335Z AUTO 00000KT 10SM CLR 11/04 A3019 RMK AO1
KBAM 201315Z AUTO 00000KT 10SM CLR 08/03 A3019 RMK AO1
KBAM 201255Z AUTO 12004KT 10SM CLR 07/02 A3019 RMK AO1
KBAM 201240Z AUTO 12005KT 10SM CLR 06/01 A3019 RMK AO1
KBAM 201215Z AUTO 11005KT 10SM CLR 06/01 A3019 RMK AO1
KBAM 201155Z AUTO 05003KT 10SM CLR 07/03 A3019 RMK AO1
KBAM 201135Z AUTO 04003KT 10SM CLR 09/05 A3018 RMK AO1
KBAM 201115Z AUTO 01004KT 10SM CLR 10/05 A3019 RMK AO1
KBAM 201055Z AUTO 00000KT 10SM CLR 10/03 A3019 RMK AO1
KBAM 201035Z AUTO 00000KT 10SM CLR 10/03 A3019 RMK AO1
KBAM 201015Z AUTO 00000KT 10SM CLR 11/03 A3019 RMK AO1
KBAM 200955Z AUTO 00000KT 10SM CLR 11/05 A3018 RMK AO1
KBAM 200935Z AUTO 00000KT 10SM CLR 10/03 A3018 RMK AO1
KBAM 200915Z AUTO 00000KT 10SM CLR 11/03 A3018 RMK AO1
KBAM 200855Z AUTO 07007KT 10SM CLR 13/05 A3018 RMK AO1
KBAM 200835Z AUTO 07007KT 10SM CLR 12/05 A3018 RMK AO1
KBAM 200815Z AUTO 07005KT 10SM CLR 13/05 A3019 RMK AO1
KBAM 200755Z AUTO 12003KT 10SM CLR 14/05 A3019 RMK AO1
KBAM 200735Z AUTO 08005KT 10SM CLR 13/05 A3018 RMK AO1
KBAM 200715Z AUTO 10004KT 10SM CLR 14/05 A3019 RMK AO1
KBAM 200655Z AUTO 07003KT 10SM CLR 14/05 A3019 RMK AO1
KBAM 200635Z AUTO 06005KT 10SM CLR 15/05 A3019 RMK AO1
KBAM 200615Z AUTO 07005KT 10SM CLR 16/05 A3019 RMK AO1
KBAM 200555Z AUTO 05006KT 10SM CLR 16/05 A3019 RMK AO1
KBAM 200535Z AUTO 09003KT 10SM CLR 17/05 A3019 RMK AO1
KBAM 200515Z AUTO 05005KT 10SM CLR 18/05 A3020 RMK AO1
KBAM 200455Z AUTO 06007KT 10SM CLR 18/04 A3019 RMK AO1
KBAM 200435Z AUTO 07006KT 10SM CLR 18/04 A3019 RMK AO1
KBAM 200415Z AUTO 07005KT 10SM CLR 18/03 A3018 RMK AO1
KBAM 200355Z AUTO 02004KT 10SM CLR 18/04 A3017 RMK AO1
KBAM 200335Z AUTO 36004KT 10SM CLR 20/04 A3017 RMK AO1
KBAM 200315Z AUTO 36005KT 10SM CLR 21/03 A3016 RMK AO1
KBAM 200255Z AUTO 36007KT 10SM CLR 22/03 A3016 RMK AO1
KBAM 200235Z AUTO 34008KT 10SM SCT080 23/02 A3015 RMK AO1
KBAM 200215Z AUTO 35008KT 10SM SCT080 25/02 A3015 RMK AO1
KBAM 200155Z AUTO 34011KT 10SM CLR 25/02 A3015 RMK AO1
KBAM 200135Z AUTO 34014KT 10SM CLR 25/02 A3014 RMK AO1
KBAM 200115Z AUTO 34010G15KT 10SM CLR 26/02 A3013 RMK AO1
KBAM 200055Z AUTO 34011G16KT 10SM SCT080 26/01 A3013 RMK AO1
KBAM 200035Z AUTO 35006KT 10SM SCT080 25/01 A3013 RMK AO1
KBAM 200015Z AUTO 01007KT 10SM CLR 25/02 A3013 RMK AO1